createdAt,value
2018-10-12T00:01:42.794Z,65.72
2018-10-12T00:04:12.873Z,66.01
2018-10-12T00:06:42.613Z,66.31
2018-10-12T00:09:13.001Z,66.18
2018-10-12T00:11:43.237Z,66.43
2018-10-12T00:14:13.189Z,66.58
2018-10-12T00:16:44.231Z,67.28
2018-10-12T00:19:14.737Z,67.10
2018-10-12T00:21:43.107Z,67.46
2018-10-12T00:24:13.900Z,67.43
2018-10-12T00:26:43.379Z,67.30
2018-10-12T00:29:11.900Z,67.38
2018-10-12T00:31:41.763Z,67.15
2018-10-12T00:34:11.861Z,67.58
2018-10-12T00:36:42.337Z,68.00
2018-10-12T00:39:11.876Z,67.91
2018-10-12T00:41:41.781Z,68.09
2018-10-12T00:44:10.718Z,68.28
2018-10-12T00:46:41.169Z,68.49
2018-10-12T00:49:10.917Z,68.82
2018-10-12T00:51:39.729Z,68.95
2018-10-12T00:54:09.960Z,68.82
2018-10-12T00:56:39.219Z,69.10
2018-10-12T00:59:10.012Z,68.91
2018-10-12T01:01:38.345Z,68.67
2018-10-12T01:04:07.605Z,69.06
2018-10-12T01:06:36.885Z,68.79
2018-10-12T01:09:05.665Z,69.15
2018-10-12T01:11:35.026Z,69.75
2018-10-12T01:14:04.438Z,69.59
2018-10-12T01:16:33.866Z,70.24
2018-10-12T01:19:03.062Z,70.17
2018-10-12T01:21:32.546Z,70.21
2018-10-12T01:24:00.889Z,70.85
2018-10-12T01:26:30.101Z,70.89
2018-10-12T01:28:59.322Z,70.90
2018-10-12T01:31:29.017Z,71.00
2018-10-12T01:33:58.237Z,71.29
2018-10-12T01:36:27.627Z,71.58
2018-10-12T01:38:56.845Z,71.60
2018-10-12T01:41:25.226Z,71.62
2018-10-12T01:43:55.429Z,71.82
2018-10-12T01:46:24.710Z,71.34
2018-10-12T01:48:53.837Z,71.17
2018-10-12T01:51:23.129Z,70.99
2018-10-12T01:53:52.382Z,71.48
2018-10-12T01:56:21.640Z,71.71
2018-10-12T01:58:50.918Z,71.72
2018-10-12T02:01:19.305Z,71.68
2018-10-12T02:03:47.902Z,71.80
2018-10-12T02:06:17.329Z,71.87
2018-10-12T02:08:45.653Z,71.67
2018-10-12T02:11:14.890Z,71.52
2018-10-12T02:13:43.308Z,72.38
2018-10-12T02:16:14.075Z,72.36
2018-10-12T02:18:42.495Z,72.35
2018-10-12T02:21:11.886Z,72.92
2018-10-12T02:23:42.828Z,73.26
2018-10-12T02:26:12.318Z,73.36
2018-10-12T02:28:43.101Z,73.62
2018-10-12T02:31:12.213Z,74.13
2018-10-12T02:33:42.441Z,73.80
2018-10-12T02:36:12.818Z,74.02
2018-10-12T02:38:42.725Z,73.75
2018-10-12T02:41:12.661Z,74.37
2018-10-12T02:43:42.391Z,74.46
2018-10-12T02:46:11.885Z,74.75
2018-10-12T02:48:40.909Z,74.67
2018-10-12T02:51:11.619Z,74.98
2018-10-12T02:53:41.385Z,75.21
2018-10-12T02:56:13.879Z,75.33
2018-10-12T02:58:43.268Z,75.31
2018-10-12T03:01:12.937Z,75.34
2018-10-12T03:03:42.746Z,76.30
2018-10-12T03:06:12.722Z,75.82
2018-10-12T03:08:42.150Z,76.17
2018-10-12T03:11:11.568Z,76.06
2018-10-12T03:13:43.442Z,76.10
2018-10-12T03:16:15.044Z,76.32
2018-10-12T03:18:43.742Z,76.24
2018-10-12T03:21:13.948Z,76.32
2018-10-12T03:23:43.289Z,76.91
2018-10-12T03:26:13.240Z,76.65
2018-10-12T03:28:45.843Z,77.09
2018-10-12T03:31:14.802Z,76.85
2018-10-12T03:33:44.196Z,76.93
2018-10-12T03:36:13.677Z,76.80
2018-10-12T03:38:43.122Z,77.50
2018-10-12T03:41:13.262Z,77.37
2018-10-12T03:43:42.974Z,77.65
2018-10-12T03:46:12.549Z,77.63
2018-10-12T03:48:42.385Z,77.75
2018-10-12T03:51:12.135Z,78.09
2018-10-12T03:53:42.166Z,78.07
2018-10-12T03:56:12.940Z,78.69
2018-10-12T03:58:42.338Z,78.71
2018-10-12T04:01:13.174Z,78.99
2018-10-12T04:03:43.202Z,78.95
2018-10-12T04:06:12.969Z,78.93
2018-10-12T04:08:42.357Z,79.45
2018-10-12T04:11:11.377Z,79.74
2018-10-12T04:13:41.143Z,79.48
2018-10-12T04:16:10.317Z,79.76
2018-10-12T04:18:39.272Z,80.07
2018-10-12T04:21:11.152Z,80.22
2018-10-12T04:23:40.317Z,79.63
2018-10-12T04:26:18.373Z,80.07
2018-10-12T04:28:46.713Z,79.94
2018-10-12T04:31:15.049Z,80.14
2018-10-12T04:33:43.400Z,80.09
2018-10-12T04:36:12.886Z,80.35
2018-10-12T04:38:52.861Z,80.22
2018-10-12T04:41:23.257Z,80.46
2018-10-12T04:43:54.058Z,80.15
2018-10-12T04:46:31.578Z,79.81
2018-10-12T04:49:01.157Z,79.88
2018-10-12T04:51:39.129Z,79.63
2018-10-12T04:54:07.982Z,80.30
2018-10-12T04:56:36.314Z,80.32
2018-10-12T04:59:04.745Z,80.15
2018-10-12T05:01:33.221Z,80.74
2018-10-12T05:04:01.566Z,80.71
2018-10-12T05:06:30.027Z,81.11
2018-10-12T05:08:58.377Z,80.94
2018-10-12T05:11:27.649Z,81.00
2018-10-12T05:13:55.979Z,81.14
2018-10-12T05:16:24.346Z,81.09
2018-10-12T05:18:52.788Z,81.46
2018-10-12T05:21:21.126Z,81.19
2018-10-12T05:23:49.500Z,81.49
2018-10-12T05:26:17.829Z,81.31
2018-10-12T05:28:46.175Z,81.09
2018-10-12T05:31:15.472Z,81.25
2018-10-12T05:33:43.901Z,81.23
2018-10-12T05:36:13.392Z,81.31
2018-10-12T05:38:43.461Z,81.61
2018-10-12T05:41:12.897Z,81.55
2018-10-12T05:43:42.845Z,81.28
2018-10-12T05:46:13.214Z,80.95
2018-10-12T05:48:55.324Z,81.25
2018-10-12T05:51:23.634Z,81.37
2018-10-12T05:53:53.077Z,81.40
2018-10-12T05:56:23.706Z,81.57
2018-10-12T05:58:52.864Z,81.01
2018-10-12T06:01:22.340Z,81.50
2018-10-12T06:03:51.553Z,81.53
2018-10-12T06:06:20.328Z,81.81
2018-10-12T06:08:49.665Z,81.71
2018-10-12T06:11:18.042Z,81.92
2018-10-12T06:13:47.293Z,81.95
2018-10-12T06:16:16.640Z,81.83
2018-10-12T06:18:45.033Z,81.63
2018-10-12T06:21:14.485Z,81.35
2018-10-12T06:23:43.850Z,81.53
2018-10-12T06:26:13.806Z,80.71
2018-10-12T06:28:43.017Z,80.33
2018-10-12T06:31:13.580Z,80.40
2018-10-12T06:33:42.954Z,80.17
2018-10-12T06:36:12.974Z,79.56
2018-10-12T06:38:44.433Z,79.05
2018-10-12T06:41:13.773Z,78.76
2018-10-12T06:43:43.145Z,78.14
2018-10-12T06:46:13.413Z,77.57
2018-10-12T06:48:44.099Z,76.88
2018-10-12T06:51:13.358Z,77.05
2018-10-12T06:53:43.526Z,76.86
2018-10-12T06:56:13.177Z,76.63
2018-10-12T06:58:43.426Z,76.75
2018-10-12T07:01:13.684Z,76.58
2018-10-12T07:03:43.843Z,76.01
2018-10-12T07:06:14.260Z,74.76
2018-10-12T07:08:43.887Z,74.62
2018-10-12T07:11:13.126Z,73.69
2018-10-12T07:13:43.456Z,74.21
2018-10-12T07:16:12.998Z,73.84
2018-10-12T07:18:43.601Z,74.03
2018-10-12T07:21:12.952Z,72.72
2018-10-12T07:23:42.969Z,73.08
2018-10-12T07:26:12.691Z,72.93
2018-10-12T07:28:42.271Z,71.86
2018-10-12T07:31:11.380Z,71.10
2018-10-12T07:33:42.750Z,70.53
2018-10-12T07:36:13.159Z,69.74
2018-10-12T07:38:42.298Z,69.16
2018-10-12T07:41:12.660Z,68.82
2018-10-12T07:43:42.692Z,68.68
2018-10-12T07:46:12.545Z,68.57
2018-10-12T07:48:43.741Z,66.79
2018-10-12T07:51:13.145Z,66.54
2018-10-12T07:53:43.236Z,66.46
2018-10-12T07:56:13.008Z,65.60
2018-10-12T07:58:43.209Z,66.85
2018-10-12T08:01:12.670Z,65.77
2018-10-12T08:03:42.233Z,65.76
2018-10-12T08:06:12.891Z,65.65
2018-10-12T08:08:43.339Z,64.40
2018-10-12T08:11:14.838Z,64.29
2018-10-12T08:13:44.083Z,63.66
2018-10-12T08:16:13.517Z,62.51
2018-10-12T08:18:43.055Z,62.79
2018-10-12T08:21:13.925Z,61.83
2018-10-12T08:23:43.903Z,60.92
2018-10-12T08:26:14.056Z,60.26
2018-10-12T08:28:43.085Z,60.31
2018-10-12T08:31:13.088Z,59.84
2018-10-12T08:33:42.895Z,59.65
2018-10-12T08:36:13.000Z,59.50
2018-10-12T08:38:43.638Z,57.97
2018-10-12T08:41:13.918Z,59.32
2018-10-12T08:43:43.057Z,58.80
2018-10-12T08:46:13.149Z,57.34
2018-10-12T08:48:42.861Z,57.80
2018-10-12T08:51:13.343Z,56.52
2018-10-12T08:53:43.195Z,56.26
2018-10-12T08:56:13.346Z,55.73
2018-10-12T08:58:43.677Z,55.53
2018-10-12T09:01:12.720Z,55.52
2018-10-12T09:03:43.110Z,55.87
2018-10-12T09:06:12.953Z,55.33
2018-10-12T09:08:42.772Z,55.49
2018-10-12T09:11:12.567Z,54.10
2018-10-12T09:13:42.889Z,53.69
2018-10-12T09:16:12.623Z,53.54
2018-10-12T09:18:42.901Z,52.52
2018-10-12T09:21:13.593Z,53.25
2018-10-12T09:23:43.735Z,52.07
2018-10-12T09:26:13.217Z,52.55
2018-10-12T09:28:43.507Z,51.71
2018-10-12T09:31:12.565Z,51.66
2018-10-12T09:33:42.847Z,50.94
2018-10-12T09:36:12.621Z,50.67
2018-10-12T09:38:42.785Z,51.04
2018-10-12T09:41:12.593Z,51.28
2018-10-12T09:43:41.955Z,50.51
2018-10-12T09:46:12.137Z,49.69
2018-10-12T09:48:41.949Z,50.21
2018-10-12T09:51:11.977Z,49.63
2018-10-12T09:53:41.390Z,49.84
2018-10-12T09:56:10.163Z,49.64
2018-10-12T09:58:39.199Z,49.73
2018-10-12T10:01:12.846Z,49.15
2018-10-12T10:03:48.311Z,48.57
2018-10-12T10:06:16.639Z,49.37
2018-10-12T10:08:44.998Z,48.78
2018-10-12T10:11:13.371Z,48.46
2018-10-12T10:13:43.517Z,47.91
2018-10-12T10:16:13.278Z,47.27
2018-10-12T10:18:43.366Z,46.93
2018-10-12T10:21:14.905Z,46.42
2018-10-12T10:23:44.130Z,46.40
2018-10-12T10:26:13.997Z,45.63
2018-10-12T10:28:44.397Z,45.63
2018-10-12T10:31:13.717Z,45.38
2018-10-12T10:33:44.436Z,45.58
2018-10-12T10:36:12.777Z,45.66
2018-10-12T10:38:43.487Z,45.14
2018-10-12T10:41:13.665Z,44.70
2018-10-12T10:43:43.213Z,46.41
2018-10-12T10:46:13.614Z,44.55
2018-10-12T10:48:44.286Z,44.94
2018-10-12T10:51:13.680Z,45.26
2018-10-12T10:53:44.460Z,44.99
2018-10-12T10:56:12.769Z,44.97
2018-10-12T10:58:42.968Z,43.83
2018-10-12T11:01:13.739Z,43.88
2018-10-12T11:03:44.501Z,44.47
2018-10-12T11:06:13.889Z,44.31
2018-10-12T11:08:43.225Z,43.59
2018-10-12T11:11:13.510Z,44.87
2018-10-12T11:13:43.733Z,44.52
2018-10-12T11:16:14.405Z,44.21
2018-10-12T11:18:44.825Z,44.05
2018-10-12T11:21:14.164Z,43.94
2018-10-12T11:23:44.100Z,43.64
2018-10-12T11:26:13.536Z,43.39
2018-10-12T11:28:44.305Z,42.06
2018-10-12T11:31:13.630Z,42.74
2018-10-12T11:33:44.302Z,42.49
2018-10-12T11:36:13.681Z,42.78
2018-10-12T11:38:43.015Z,42.42
2018-10-12T11:41:12.321Z,42.15
2018-10-12T11:43:42.421Z,42.51
2018-10-12T11:46:14.098Z,42.37
2018-10-12T11:48:43.555Z,42.87
2018-10-12T11:51:14.481Z,42.08
2018-10-12T11:53:42.813Z,42.12
2018-10-12T11:56:12.216Z,43.23
2018-10-12T11:58:43.061Z,42.13
2018-10-12T12:01:13.785Z,41.45
2018-10-12T12:03:43.229Z,40.59
2018-10-12T12:06:13.590Z,41.72
2018-10-12T12:08:42.613Z,41.99
2018-10-12T12:11:12.701Z,41.89
2018-10-12T12:13:42.543Z,41.22
2018-10-12T12:16:13.653Z,41.32
2018-10-12T12:18:44.486Z,41.28
2018-10-12T12:21:13.685Z,41.24
2018-10-12T12:23:44.485Z,40.78
2018-10-12T12:26:12.887Z,40.64
2018-10-12T12:28:42.253Z,40.41
2018-10-12T12:31:14.030Z,39.86
2018-10-12T12:33:43.310Z,39.64
2018-10-12T12:36:14.169Z,40.39
2018-10-12T12:38:43.549Z,39.78
2018-10-12T12:41:13.056Z,40.17
2018-10-12T12:43:43.821Z,40.80
2018-10-12T12:46:13.453Z,39.97
2018-10-12T12:48:43.705Z,39.85
2018-10-12T12:51:13.270Z,39.48
2018-10-12T12:53:43.925Z,39.92
2018-10-12T12:56:12.656Z,40.88
2018-10-12T12:58:42.557Z,40.46
2018-10-12T13:01:13.064Z,39.87
2018-10-12T13:03:42.921Z,40.19
2018-10-12T13:06:13.131Z,39.72
2018-10-12T13:08:43.517Z,40.16
2018-10-12T13:11:12.940Z,40.07
2018-10-12T13:13:43.269Z,40.57
2018-10-12T13:16:13.422Z,39.67
2018-10-12T13:18:43.593Z,40.10
2018-10-12T13:21:14.465Z,39.66
2018-10-12T13:23:43.676Z,39.79
2018-10-12T13:26:13.524Z,39.79
2018-10-12T13:28:43.758Z,39.26
2018-10-12T13:31:14.525Z,39.36
2018-10-12T13:33:43.867Z,40.10
2018-10-12T13:36:13.254Z,40.48
2018-10-12T13:38:43.313Z,39.82
2018-10-12T13:41:16.165Z,39.92
2018-10-12T13:43:44.525Z,39.37
2018-10-12T13:46:14.398Z,39.58
2018-10-12T13:48:43.450Z,40.13
2018-10-12T13:51:12.464Z,40.36
2018-10-12T13:53:43.505Z,40.16
2018-10-12T13:56:12.922Z,39.59
2018-10-12T13:58:43.130Z,40.47
2018-10-12T14:01:12.505Z,39.85
2018-10-12T14:03:41.645Z,40.85
2018-10-12T14:06:11.090Z,40.80
2018-10-12T14:08:40.700Z,39.72
2018-10-12T14:11:11.048Z,40.52
2018-10-12T14:13:43.012Z,40.25
2018-10-12T14:16:13.796Z,40.57
2018-10-12T14:18:43.167Z,40.51
2018-10-12T14:21:12.965Z,40.26
2018-10-12T14:23:43.591Z,39.95
2018-10-12T14:26:12.782Z,40.50
2018-10-12T14:28:42.091Z,40.13
2018-10-12T14:31:11.877Z,39.97
2018-10-12T14:33:40.713Z,40.52
2018-10-12T14:36:10.209Z,40.74
2018-10-12T14:38:39.152Z,40.92
2018-10-12T14:41:08.341Z,40.47
2018-10-12T14:43:37.599Z,40.84
2018-10-12T14:46:06.269Z,40.97
2018-10-12T14:48:34.604Z,41.31
2018-10-12T14:51:02.941Z,41.44
2018-10-12T14:53:31.359Z,41.85
2018-10-12T14:55:59.657Z,41.55
2018-10-12T14:58:28.364Z,42.32
2018-10-12T15:00:56.754Z,42.67
2018-10-12T15:03:25.105Z,42.91
2018-10-12T15:05:53.466Z,42.85
2018-10-12T15:08:21.821Z,43.23
2018-10-12T15:10:50.180Z,43.65
2018-10-12T15:13:18.520Z,43.67
2018-10-12T15:15:46.856Z,43.77
2018-10-12T15:18:15.201Z,44.03
2018-10-12T15:20:43.612Z,44.05
2018-10-12T15:23:12.833Z,44.51
2018-10-12T15:25:42.965Z,44.09
2018-10-12T15:28:12.342Z,44.71
2018-10-12T15:30:41.722Z,45.01
2018-10-12T15:33:11.489Z,44.82
2018-10-12T15:35:39.822Z,45.39
2018-10-12T15:38:08.157Z,46.06
2018-10-12T15:40:36.553Z,46.17
2018-10-12T15:43:04.948Z,46.82
2018-10-12T15:45:33.301Z,46.58
2018-10-12T15:48:01.645Z,46.40
2018-10-12T15:50:30.322Z,47.02
2018-10-12T15:52:58.688Z,46.79
2018-10-12T15:55:27.952Z,46.86
2018-10-12T15:57:56.288Z,46.84
2018-10-12T16:00:25.501Z,47.32
2018-10-12T16:02:53.862Z,48.06
2018-10-12T16:05:23.117Z,48.38
2018-10-12T16:07:51.485Z,48.54
2018-10-12T16:10:19.817Z,48.99
2018-10-12T16:12:48.157Z,49.31
2018-10-12T16:15:16.499Z,49.53
2018-10-12T16:17:44.961Z,49.41
2018-10-12T16:20:14.342Z,49.62
2018-10-12T16:22:44.272Z,49.70
2018-10-12T16:25:24.073Z,49.79
2018-10-12T16:27:53.353Z,50.30
2018-10-12T16:30:21.828Z,50.33
2018-10-12T16:32:50.179Z,50.17
2018-10-12T16:35:18.527Z,50.53
2018-10-12T16:37:47.744Z,50.54
2018-10-12T16:40:17.121Z,51.07
2018-10-12T16:42:46.332Z,51.38
2018-10-12T16:45:14.678Z,51.44
2018-10-12T16:47:44.029Z,51.89
2018-10-12T16:50:13.869Z,52.45
2018-10-12T16:52:43.313Z,53.03
2018-10-12T16:55:13.797Z,53.20
2018-10-12T16:57:44.288Z,53.23
2018-10-12T17:00:13.494Z,53.36
2018-10-12T17:02:43.099Z,54.13
2018-10-12T17:05:12.465Z,54.34
2018-10-12T17:07:41.869Z,54.80
2018-10-12T17:10:11.783Z,55.09
2018-10-12T17:12:40.490Z,55.06
2018-10-12T17:15:10.857Z,55.39
2018-10-12T17:17:41.914Z,55.48
2018-10-12T17:20:11.773Z,55.80
2018-10-12T17:22:42.413Z,55.72
2018-10-12T17:25:11.776Z,55.61
2018-10-12T17:27:43.029Z,55.85
2018-10-12T17:30:13.331Z,56.40
2018-10-12T17:32:43.645Z,56.23
2018-10-12T17:35:12.917Z,56.45
2018-10-12T17:37:42.451Z,56.83
2018-10-12T17:40:14.047Z,56.72
2018-10-12T17:42:44.830Z,57.42
2018-10-12T17:45:14.629Z,57.72
2018-10-12T17:47:43.854Z,57.34
2018-10-12T17:50:13.531Z,57.80
2018-10-12T17:52:44.063Z,57.76
2018-10-12T17:55:12.892Z,58.31
2018-10-12T17:57:43.678Z,58.00
2018-10-12T18:00:13.172Z,58.83
2018-10-12T18:02:43.206Z,58.54
2018-10-12T18:05:13.402Z,58.96
2018-10-12T18:07:44.209Z,59.00
2018-10-12T18:10:14.078Z,59.94
2018-10-12T18:12:43.417Z,60.22
2018-10-12T18:15:12.774Z,60.75
2018-10-12T18:17:42.276Z,60.57
2018-10-12T18:20:13.970Z,60.58
2018-10-12T18:22:43.056Z,60.40
2018-10-12T18:25:13.157Z,60.47
2018-10-12T18:27:44.418Z,60.78
2018-10-12T18:30:13.842Z,60.53
2018-10-12T18:32:43.329Z,61.44
2018-10-12T18:35:14.056Z,61.50
2018-10-12T18:37:42.921Z,61.38
2018-10-12T18:40:13.362Z,61.65
2018-10-12T18:42:43.712Z,62.14
2018-10-12T18:45:12.954Z,61.88
2018-10-12T18:47:44.737Z,62.56
2018-10-12T18:50:13.949Z,62.07
2018-10-12T18:52:44.817Z,62.14
2018-10-12T18:55:15.937Z,62.04
2018-10-12T18:57:44.367Z,62.73
2018-10-12T19:00:13.852Z,62.69
2018-10-12T19:02:44.010Z,62.71
2018-10-12T19:05:14.629Z,63.09
2018-10-12T19:07:44.446Z,62.56
2018-10-12T19:10:13.836Z,62.51
2018-10-12T19:12:44.676Z,62.19
2018-10-12T19:15:13.961Z,62.14
2018-10-12T19:17:43.637Z,62.09
2018-10-12T19:20:13.907Z,61.65
2018-10-12T19:22:43.842Z,61.28
2018-10-12T19:25:14.714Z,61.38
2018-10-12T19:27:43.948Z,61.52
2018-10-12T19:30:13.346Z,61.71
2018-10-12T19:32:46.199Z,61.27
2018-10-12T19:35:14.605Z,60.91
2018-10-12T19:37:44.087Z,61.15
2018-10-12T19:40:13.465Z,61.27
2018-10-12T19:42:43.504Z,61.08
2018-10-12T19:45:13.858Z,60.83
2018-10-12T19:47:43.570Z,61.53
2018-10-12T19:50:13.990Z,61.39
2018-10-12T19:52:43.024Z,61.43
2018-10-12T19:55:12.617Z,61.84
2018-10-12T19:57:42.405Z,61.43
2018-10-12T20:00:11.902Z,61.63
2018-10-12T20:02:41.849Z,62.12
2018-10-12T20:05:11.769Z,61.77
2018-10-12T20:07:42.153Z,62.01
2018-10-12T20:10:12.874Z,62.19
2018-10-12T20:12:43.518Z,62.50
2018-10-12T20:15:11.901Z,62.76
2018-10-12T20:17:41.919Z,62.91
2018-10-12T20:20:12.945Z,63.36
2018-10-12T20:22:42.545Z,63.94
2018-10-12T20:25:14.018Z,64.17
2018-10-12T20:27:44.073Z,64.43
2018-10-12T20:30:14.529Z,65.28
2018-10-12T20:32:43.648Z,65.50
2018-10-12T20:35:13.997Z,65.46
2018-10-12T20:37:43.340Z,65.66
2018-10-12T20:40:13.475Z,65.18
2018-10-12T20:42:42.773Z,65.22
2018-10-12T20:45:12.991Z,64.95
2018-10-12T20:47:43.048Z,65.14
2018-10-12T20:50:13.032Z,65.00
2018-10-12T20:52:42.386Z,65.12
2018-10-12T20:55:12.398Z,65.19
2018-10-12T20:57:48.242Z,65.13
2018-10-12T21:00:18.074Z,65.49
2018-10-12T21:02:46.670Z,66.04
2018-10-12T21:05:15.181Z,66.33
2018-10-12T21:07:44.683Z,66.36
2018-10-12T21:10:13.705Z,66.92
2018-10-12T21:12:43.979Z,67.50
2018-10-12T21:15:13.484Z,67.26
2018-10-12T21:17:43.304Z,67.46
2018-10-12T21:20:14.026Z,67.10
2018-10-12T21:22:43.332Z,67.40
2018-10-12T21:25:13.529Z,66.98
2018-10-12T21:27:43.113Z,68.05
2018-10-12T21:30:13.945Z,67.76
2018-10-12T21:32:44.333Z,67.75
2018-10-12T21:35:13.497Z,67.59
2018-10-12T21:37:42.960Z,67.99
2018-10-12T21:40:12.649Z,67.99
2018-10-12T21:42:42.729Z,68.15
2018-10-12T21:45:12.989Z,68.66
2018-10-12T21:47:42.797Z,68.88
2018-10-12T21:50:12.933Z,69.20
2018-10-12T21:52:43.781Z,69.38
2018-10-12T21:55:12.604Z,69.68
2018-10-12T21:57:42.446Z,69.85
2018-10-12T22:00:11.937Z,69.77
2018-10-12T22:02:41.925Z,70.57
2018-10-12T22:05:12.707Z,70.68
2018-10-12T22:07:42.693Z,71.00
2018-10-12T22:10:12.055Z,71.15
2018-10-12T22:12:42.037Z,71.21
2018-10-12T22:15:12.897Z,71.46
2018-10-12T22:17:43.865Z,71.62
2018-10-12T22:20:12.862Z,71.70
2018-10-12T22:22:43.022Z,71.57
2018-10-12T22:25:13.805Z,71.79
2018-10-12T22:27:43.621Z,71.81
2018-10-12T22:30:13.861Z,71.80
2018-10-12T22:32:43.229Z,71.94
2018-10-12T22:35:12.657Z,72.10
2018-10-12T22:37:42.842Z,72.24
2018-10-12T22:40:14.205Z,72.63
2018-10-12T22:42:43.219Z,72.85
2018-10-12T22:45:14.402Z,73.16
2018-10-12T22:47:44.099Z,73.26
2018-10-12T22:50:13.193Z,73.37
2018-10-12T22:52:41.996Z,73.27
2018-10-12T22:55:12.714Z,73.61
2018-10-12T22:57:42.093Z,73.54
2018-10-12T23:00:12.025Z,73.49
2018-10-12T23:02:41.609Z,73.34
2018-10-12T23:05:11.849Z,73.67
2018-10-12T23:07:41.961Z,73.34
2018-10-12T23:10:11.391Z,73.67
2018-10-12T23:12:47.678Z,74.41
2018-10-12T23:15:16.857Z,74.31
2018-10-12T23:17:46.349Z,74.10
2018-10-12T23:20:15.652Z,74.78
2018-10-12T23:22:44.061Z,74.44
2018-10-12T23:25:13.133Z,74.91
2018-10-12T23:27:42.009Z,74.87
2018-10-12T23:30:12.850Z,74.80
2018-10-12T23:32:42.677Z,75.31
2018-10-12T23:35:14.557Z,74.89
2018-10-12T23:37:43.721Z,74.91
2018-10-12T23:40:12.544Z,75.06
2018-10-12T23:42:42.088Z,74.81
2018-10-12T23:45:12.803Z,75.06
2018-10-12T23:47:43.394Z,74.80
2018-10-12T23:50:13.025Z,74.64
2018-10-12T23:52:42.446Z,74.71
2018-10-12T23:55:13.632Z,74.93
2018-10-12T23:57:43.122Z,74.63
